タヒチ島 の空港の天気 - METARとTAF

タヒチ・ファアア国際空港 ( NTAA / PPT ) - フランス領ポリネシア タヒチ島
飛行場実況気象(Metar)
観測時間09/24 15:30 TAHT (09/25 01:30 UTC)
風向・風速北西 6m/s
視程10km以上
天気現象
少しの雲 雲底高度 790m
気温27℃
湿度54%
気圧1011hPa
METARNTAA 250130Z 32012KT 9999 FEW026 27/17 Q1011 NOSIG
過去の天気等 Google飛行場航空写真 Wunderground天気予報

過去48時間のMETAR

飛行場予報(TAF)
発表時間: 9/24 13:00 TAHT (9/24 23:00 UTC)
予報対象時間: 24日14時 TAHT ~ 25日20時 TAHT
風向・風速不定 2m/s
視程10km以上
少しの雲 雲底高度 760m
全天の4割程度の雲 雲底高度 1520m
24日14時 TAHT ~ 24日18時 TAHT に 確率 30% で一時的に
風向・風速南南西 8m/s 瞬間風速 13m/s
TAF NTAA 242300Z 2500/2606 VRB03KT 9999 FEW025 SCT050
PROB30 TEMPO 2500/2504 20015G25KT